sensor_id;sensor_type;location;lat;lon;timestamp;pressure;altitude;pressure_sealevel;temperature;humidity
1472;BME280;963;42.644;23.336;2024-02-23T00:00:50;93906.28;;;8.14;60.75
1472;BME280;963;42.644;23.336;2024-02-23T00:03:15;93920.66;;;8.20;60.88
1472;BME280;963;42.644;23.336;2024-02-23T00:05:41;93909.31;;;8.16;60.03
1472;BME280;963;42.644;23.336;2024-02-23T00:08:07;93915.25;;;8.32;60.41
1472;BME280;963;42.644;23.336;2024-02-23T00:10:33;93896.31;;;8.39;59.90
1472;BME280;963;42.644;23.336;2024-02-23T00:12:59;93918.88;;;7.86;60.43
1472;BME280;963;42.644;23.336;2024-02-23T00:15:25;93913.19;;;8.22;59.91
1472;BME280;963;42.644;23.336;2024-02-23T00:17:50;93920.09;;;8.30;60.38
1472;BME280;963;42.644;23.336;2024-02-23T00:20:15;93911.06;;;8.28;59.93
1472;BME280;963;42.644;23.336;2024-02-23T00:22:41;93907.19;;;8.41;59.46
1472;BME280;963;42.644;23.336;2024-02-23T00:25:06;93909.06;;;8.40;59.66
1472;BME280;963;42.644;23.336;2024-02-23T00:27:32;93919.94;;;8.42;59.80
1472;BME280;963;42.644;23.336;2024-02-23T00:29:58;93872.66;;;8.16;59.93
1472;BME280;963;42.644;23.336;2024-02-23T00:32:23;93908.31;;;8.40;59.38
1472;BME280;963;42.644;23.336;2024-02-23T00:34:49;93903.06;;;8.40;60.12
1472;BME280;963;42.644;23.336;2024-02-23T00:37:14;93902.16;;;8.32;59.90
1472;BME280;963;42.644;23.336;2024-02-23T00:39:40;93908.97;;;8.18;60.26
1472;BME280;963;42.644;23.336;2024-02-23T00:42:05;93885.00;;;8.35;60.38
1472;BME280;963;42.644;23.336;2024-02-23T00:44:31;93877.59;;;8.40;59.66
1472;BME280;963;42.644;23.336;2024-02-23T00:46:56;93881.06;;;8.06;60.98
1472;BME280;963;42.644;23.336;2024-02-23T00:49:26;93900.66;;;7.54;62.40
1472;BME280;963;42.644;23.336;2024-02-23T00:51:51;93880.53;;;7.97;61.05
1472;BME280;963;42.644;23.336;2024-02-23T00:54:17;93869.31;;;7.96;61.08
1472;BME280;963;42.644;23.336;2024-02-23T00:56:42;93896.38;;;8.04;61.30
1472;BME280;963;42.644;23.336;2024-02-23T00:59:08;93890.44;;;8.07;60.98
1472;BME280;963;42.644;23.336;2024-02-23T01:01:33;93867.91;;;8.02;60.92
1472;BME280;963;42.644;23.336;2024-02-23T01:03:58;93876.56;;;7.83;61.52
1472;BME280;963;42.644;23.336;2024-02-23T01:06:24;93866.69;;;7.96;60.42
1472;BME280;963;42.644;23.336;2024-02-23T01:08:50;93884.38;;;8.03;61.01
1472;BME280;963;42.644;23.336;2024-02-23T01:11:15;93882.91;;;7.82;61.58
1472;BME280;963;42.644;23.336;2024-02-23T01:13:41;93896.34;;;6.95;63.54
1472;BME280;963;42.644;23.336;2024-02-23T01:16:06;93857.63;;;7.36;61.38
1472;BME280;963;42.644;23.336;2024-02-23T01:18:33;93867.84;;;7.41;62.01
1472;BME280;963;42.644;23.336;2024-02-23T01:20:58;93871.72;;;7.66;61.51
1472;BME280;963;42.644;23.336;2024-02-23T01:23:24;93862.78;;;7.87;60.79
1472;BME280;963;42.644;23.336;2024-02-23T01:25:49;93856.78;;;7.86;61.16
1472;BME280;963;42.644;23.336;2024-02-23T01:28:15;93873.50;;;7.62;61.73
1472;BME280;963;42.644;23.336;2024-02-23T01:30:40;93841.41;;;7.46;61.95
1472;BME280;963;42.644;23.336;2024-02-23T01:33:05;93866.56;;;7.50;60.41
1472;BME280;963;42.644;23.336;2024-02-23T01:35:31;93857.03;;;7.42;61.86
1472;BME280;963;42.644;23.336;2024-02-23T01:37:56;93841.13;;;7.70;60.86
1472;BME280;963;42.644;23.336;2024-02-23T01:40:22;93850.88;;;7.35;62.07
1472;BME280;963;42.644;23.336;2024-02-23T01:42:47;93841.53;;;7.34;62.32
1472;BME280;963;42.644;23.336;2024-02-23T01:45:12;93855.50;;;7.41;61.75
1472;BME280;963;42.644;23.336;2024-02-23T01:47:38;93843.81;;;7.55;61.41
1472;BME280;963;42.644;23.336;2024-02-23T01:50:04;93849.81;;;7.55;61.82
1472;BME280;963;42.644;23.336;2024-02-23T01:52:30;93842.53;;;7.45;61.53
1472;BME280;963;42.644;23.336;2024-02-23T01:54:56;93837.97;;;7.61;60.96
1472;BME280;963;42.644;23.336;2024-02-23T01:57:22;93830.66;;;7.70;60.74
1472;BME280;963;42.644;23.336;2024-02-23T01:59:49;93823.22;;;7.92;60.35
1472;BME280;963;42.644;23.336;2024-02-23T02:02:15;93817.59;;;7.51;61.52
1472;BME280;963;42.644;23.336;2024-02-23T02:04:41;93817.31;;;7.56;61.41
1472;BME280;963;42.644;23.336;2024-02-23T02:07:06;93800.69;;;7.87;60.72
1472;BME280;963;42.644;23.336;2024-02-23T02:09:32;93806.53;;;8.00;60.04
1472;BME280;963;42.644;23.336;2024-02-23T02:11:57;93827.00;;;7.75;60.78
1472;BME280;963;42.644;23.336;2024-02-23T02:14:23;93832.47;;;7.47;61.97
1472;BME280;963;42.644;23.336;2024-02-23T02:16:48;93826.41;;;7.81;61.41
1472;BME280;963;42.644;23.336;2024-02-23T02:19:14;93834.09;;;7.94;60.65
1472;BME280;963;42.644;23.336;2024-02-23T02:21:40;93827.50;;;7.61;61.30
1472;BME280;963;42.644;23.336;2024-02-23T02:24:06;93822.94;;;7.77;61.38
1472;BME280;963;42.644;23.336;2024-02-23T02:26:31;93816.13;;;7.92;61.16
1472;BME280;963;42.644;23.336;2024-02-23T02:28:57;93802.69;;;7.94;60.58
1472;BME280;963;42.644;23.336;2024-02-23T02:31:22;93820.03;;;8.02;60.40
1472;BME280;963;42.644;23.336;2024-02-23T02:33:48;93819.63;;;8.00;60.87
1472;BME280;963;42.644;23.336;2024-02-23T02:36:14;93822.47;;;8.14;60.07
1472;BME280;963;42.644;23.336;2024-02-23T02:38:39;93830.63;;;8.09;60.95
1472;BME280;963;42.644;23.336;2024-02-23T02:41:05;93857.38;;;7.79;61.44
1472;BME280;963;42.644;23.336;2024-02-23T02:43:31;93836.31;;;7.92;61.13
1472;BME280;963;42.644;23.336;2024-02-23T02:45:57;93841.66;;;7.99;60.80
1472;BME280;963;42.644;23.336;2024-02-23T02:48:23;93822.22;;;8.00;60.69
1472;BME280;963;42.644;23.336;2024-02-23T02:50:50;93841.78;;;8.06;60.15
1472;BME280;963;42.644;23.336;2024-02-23T02:53:16;93821.69;;;7.91;60.86
1472;BME280;963;42.644;23.336;2024-02-23T02:55:42;93825.66;;;8.04;60.21
1472;BME280;963;42.644;23.336;2024-02-23T02:58:08;93818.44;;;7.97;60.11
1472;BME280;963;42.644;23.336;2024-02-23T03:00:34;93822.75;;;8.09;60.13
1472;BME280;963;42.644;23.336;2024-02-23T03:02:59;93822.47;;;8.14;59.85
1472;BME280;963;42.644;23.336;2024-02-23T03:05:25;93816.88;;;8.15;60.11
1472;BME280;963;42.644;23.336;2024-02-23T03:07:51;93836.72;;;7.94;60.58
1472;BME280;963;42.644;23.336;2024-02-23T03:10:16;93828.47;;;7.92;60.46
1472;BME280;963;42.644;23.336;2024-02-23T03:12:42;93832.19;;;7.91;61.18
1472;BME280;963;42.644;23.336;2024-02-23T03:15:07;93855.94;;;8.01;60.83
1472;BME280;963;42.644;23.336;2024-02-23T03:17:35;93826.09;;;8.06;60.42
1472;BME280;963;42.644;23.336;2024-02-23T03:20:00;93828.75;;;8.09;60.85
1472;BME280;963;42.644;23.336;2024-02-23T03:22:26;93840.13;;;8.17;60.62
1472;BME280;963;42.644;23.336;2024-02-23T03:24:51;93838.88;;;8.11;60.45
1472;BME280;963;42.644;23.336;2024-02-23T03:27:16;93829.97;;;8.15;60.62
1472;BME280;963;42.644;23.336;2024-02-23T03:29:42;93847.09;;;8.09;60.97
1472;BME280;963;42.644;23.336;2024-02-23T03:32:07;93835.56;;;7.91;61.18
1472;BME280;963;42.644;23.336;2024-02-23T03:34:33;93835.78;;;7.82;61.85
1472;BME280;963;42.644;23.336;2024-02-23T03:36:58;93838.81;;;7.84;61.95
1472;BME280;963;42.644;23.336;2024-02-23T03:39:24;93831.00;;;7.88;61.27
1472;BME280;963;42.644;23.336;2024-02-23T03:41:49;93829.97;;;7.93;61.22
1472;BME280;963;42.644;23.336;2024-02-23T03:44:15;93835.75;;;7.63;61.97
1472;BME280;963;42.644;23.336;2024-02-23T03:46:40;93842.25;;;7.89;62.05
1472;BME280;963;42.644;23.336;2024-02-23T03:49:06;93817.91;;;7.88;61.36
1472;BME280;963;42.644;23.336;2024-02-23T03:51:31;93833.34;;;7.93;60.95
1472;BME280;963;42.644;23.336;2024-02-23T03:53:59;93825.13;;;7.95;61.56
1472;BME280;963;42.644;23.336;2024-02-23T03:56:24;93837.06;;;7.92;61.32
1472;BME280;963;42.644;23.336;2024-02-23T03:58:50;93829.69;;;7.98;61.55
1472;BME280;963;42.644;23.336;2024-02-23T04:01:15;93837.25;;;8.03;61.26
1472;BME280;963;42.644;23.336;2024-02-23T04:03:40;93824.44;;;7.98;61.76
1472;BME280;963;42.644;23.336;2024-02-23T04:06:06;93824.03;;;7.96;61.60
1472;BME280;963;42.644;23.336;2024-02-23T04:08:32;93825.97;;;7.99;62.03
1472;BME280;963;42.644;23.336;2024-02-23T04:10:58;93836.84;;;8.01;62.05
1472;BME280;963;42.644;23.336;2024-02-23T04:13:23;93851.44;;;8.02;62.27
1472;BME280;963;42.644;23.336;2024-02-23T04:15:49;93852.63;;;8.04;61.93
1472;BME280;963;42.644;23.336;2024-02-23T04:18:14;93844.75;;;8.04;61.46
1472;BME280;963;42.644;23.336;2024-02-23T04:20:40;93850.63;;;7.98;62.15
1472;BME280;963;42.644;23.336;2024-02-23T04:23:06;93812.28;;;7.86;62.23
1472;BME280;963;42.644;23.336;2024-02-23T04:25:32;93846.91;;;7.99;62.61
1472;BME280;963;42.644;23.336;2024-02-23T04:27:57;93847.72;;;8.03;61.86
1472;BME280;963;42.644;23.336;2024-02-23T04:30:22;93833.41;;;7.97;62.27
1472;BME280;963;42.644;23.336;2024-02-23T04:32:48;93845.53;;;8.05;61.79
1472;BME280;963;42.644;23.336;2024-02-23T04:35:13;93837.13;;;7.96;62.21
1472;BME280;963;42.644;23.336;2024-02-23T04:37:39;93838.22;;;7.95;61.94
1472;BME280;963;42.644;23.336;2024-02-23T04:40:05;93867.84;;;7.99;61.94
1472;BME280;963;42.644;23.336;2024-02-23T04:42:30;93848.44;;;8.00;61.45
1472;BME280;963;42.644;23.336;2024-02-23T04:44:56;93857.47;;;7.83;61.99
1472;BME280;963;42.644;23.336;2024-02-23T04:47:21;93866.84;;;7.84;62.63
1472;BME280;963;42.644;23.336;2024-02-23T04:49:47;93857.66;;;7.74;62.87
1472;BME280;963;42.644;23.336;2024-02-23T04:52:13;93857.66;;;7.74;62.45
1472;BME280;963;42.644;23.336;2024-02-23T04:54:38;93850.78;;;7.66;63.06
1472;BME280;963;42.644;23.336;2024-02-23T04:57:04;93845.69;;;7.73;62.46
1472;BME280;963;42.644;23.336;2024-02-23T04:59:29;93843.97;;;7.81;62.47
1472;BME280;963;42.644;23.336;2024-02-23T05:01:57;93853.59;;;7.77;62.61
1472;BME280;963;42.644;23.336;2024-02-23T05:04:22;93860.28;;;7.55;63.54
1472;BME280;963;42.644;23.336;2024-02-23T05:06:48;93884.38;;;7.64;63.08
1472;BME280;963;42.644;23.336;2024-02-23T05:09:13;93847.34;;;7.62;62.61
1472;BME280;963;42.644;23.336;2024-02-23T05:11:39;93847.75;;;7.64;62.87
1472;BME280;963;42.644;23.336;2024-02-23T05:14:04;93852.13;;;7.21;63.96
1472;BME280;963;42.644;23.336;2024-02-23T05:16:29;93853.53;;;7.54;63.16
1472;BME280;963;42.644;23.336;2024-02-23T05:18:55;93885.84;;;7.62;62.72
1472;BME280;963;42.644;23.336;2024-02-23T05:21:20;93864.00;;;7.54;62.40
1472;BME280;963;42.644;23.336;2024-02-23T05:23:45;93860.97;;;7.52;63.08
1472;BME280;963;42.644;23.336;2024-02-23T05:26:11;93892.59;;;7.28;63.40
1472;BME280;963;42.644;23.336;2024-02-23T05:28:37;93867.59;;;7.46;62.90
1472;BME280;963;42.644;23.336;2024-02-23T05:31:03;93881.22;;;7.55;62.79
1472;BME280;963;42.644;23.336;2024-02-23T05:33:31;93892.31;;;7.48;63.25
1472;BME280;963;42.644;23.336;2024-02-23T05:35:56;93879.72;;;7.54;63.02
1472;BME280;963;42.644;23.336;2024-02-23T05:38:22;93885.16;;;7.65;62.91
1472;BME280;963;42.644;23.336;2024-02-23T05:40:47;93882.59;;;7.68;62.85
1472;BME280;963;42.644;23.336;2024-02-23T05:43:13;93878.88;;;7.50;63.78
1472;BME280;963;42.644;23.336;2024-02-23T05:45:39;93900.09;;;7.64;62.87
1472;BME280;963;42.644;23.336;2024-02-23T05:48:04;93895.41;;;7.54;62.72
1472;BME280;963;42.644;23.336;2024-02-23T05:50:30;93895.00;;;7.71;61.96
1472;BME280;963;42.644;23.336;2024-02-23T05:52:56;93866.56;;;7.70;62.35
1472;BME280;963;42.644;23.336;2024-02-23T05:55:21;93910.50;;;7.26;63.85
1472;BME280;963;42.644;23.336;2024-02-23T05:57:47;93911.38;;;7.49;62.75
1472;BME280;963;42.644;23.336;2024-02-23T06:00:13;93900.91;;;7.68;61.99
1472;BME280;963;42.644;23.336;2024-02-23T06:02:38;93885.22;;;7.68;62.50
1472;BME280;963;42.644;23.336;2024-02-23T06:05:04;93917.81;;;7.36;62.85
1472;BME280;963;42.644;23.336;2024-02-23T06:07:30;93928.06;;;7.60;62.36
1472;BME280;963;42.644;23.336;2024-02-23T06:09:56;93906.03;;;7.61;62.48
1472;BME280;963;42.644;23.336;2024-02-23T06:12:22;93906.03;;;7.26;63.14
1472;BME280;963;42.644;23.336;2024-02-23T06:14:47;93927.66;;;7.42;63.86
1472;BME280;963;42.644;23.336;2024-02-23T06:17:13;93919.53;;;7.63;63.03
1472;BME280;963;42.644;23.336;2024-02-23T06:19:38;93928.63;;;7.69;62.99
1472;BME280;963;42.644;23.336;2024-02-23T06:22:04;93890.75;;;7.82;62.23
1472;BME280;963;42.644;23.336;2024-02-23T06:24:29;93898.81;;;7.39;63.59
1472;BME280;963;42.644;23.336;2024-02-23T06:26:55;93918.84;;;7.31;64.16
1472;BME280;963;42.644;23.336;2024-02-23T06:29:20;93910.03;;;7.39;63.57
1472;BME280;963;42.644;23.336;2024-02-23T06:31:45;93924.91;;;7.35;63.57
1472;BME280;963;42.644;23.336;2024-02-23T06:34:15;93942.66;;;7.61;63.26
1472;BME280;963;42.644;23.336;2024-02-23T06:36:41;93923.88;;;7.75;62.66
1472;BME280;963;42.644;23.336;2024-02-23T06:39:06;93923.88;;;7.94;62.08
1472;BME280;963;42.644;23.336;2024-02-23T06:41:32;93941.53;;;8.16;61.91
1472;BME280;963;42.644;23.336;2024-02-23T06:43:57;93929.81;;;8.30;61.34
1472;BME280;963;42.644;23.336;2024-02-23T06:46:22;93924.22;;;8.51;60.97
1472;BME280;963;42.644;23.336;2024-02-23T06:48:48;93928.69;;;8.50;60.24
1472;BME280;963;42.644;23.336;2024-02-23T06:51:13;93903.44;;;8.61;60.14
1472;BME280;963;42.644;23.336;2024-02-23T06:53:40;93917.72;;;8.64;60.04
1472;BME280;963;42.644;23.336;2024-02-23T06:56:06;93928.56;;;8.24;61.00
1472;BME280;963;42.644;23.336;2024-02-23T06:58:31;93922.72;;;8.30;60.81
1472;BME280;963;42.644;23.336;2024-02-23T07:00:57;93920.91;;;8.15;61.02
1472;BME280;963;42.644;23.336;2024-02-23T07:03:22;93920.38;;;8.25;61.30
1472;BME280;963;42.644;23.336;2024-02-23T07:05:48;93921.31;;;8.56;60.59
1472;BME280;963;42.644;23.336;2024-02-23T07:08:15;93945.84;;;8.67;60.30
1472;BME280;963;42.644;23.336;2024-02-23T07:10:40;93941.78;;;8.92;59.69
1472;BME280;963;42.644;23.336;2024-02-23T07:13:05;93932.97;;;8.81;59.51
1472;BME280;963;42.644;23.336;2024-02-23T07:15:32;93933.78;;;8.85;59.58
1472;BME280;963;42.644;23.336;2024-02-23T07:17:58;93929.13;;;8.98;59.34
1472;BME280;963;42.644;23.336;2024-02-23T07:20:23;93910.44;;;9.26;59.12
1472;BME280;963;42.644;23.336;2024-02-23T07:22:49;93936.78;;;9.33;58.33
1472;BME280;963;42.644;23.336;2024-02-23T07:25:18;93931.16;;;9.08;58.83
1472;BME280;963;42.644;23.336;2024-02-23T07:27:45;93901.44;;;9.00;59.10
1472;BME280;963;42.644;23.336;2024-02-23T07:30:11;93895.66;;;9.14;58.98
1472;BME280;963;42.644;23.336;2024-02-23T07:32:37;93916.63;;;8.45;60.93
1472;BME280;963;42.644;23.336;2024-02-23T07:35:03;93902.97;;;8.78;60.82
1472;BME280;963;42.644;23.336;2024-02-23T07:37:29;93893.56;;;9.00;60.03
1472;BME280;963;42.644;23.336;2024-02-23T07:39:54;93923.44;;;9.19;60.33
1472;BME280;963;42.644;23.336;2024-02-23T07:42:20;93908.69;;;9.33;60.18
1472;BME280;963;42.644;23.336;2024-02-23T07:44:45;93902.38;;;9.38;60.46
1472;BME280;963;42.644;23.336;2024-02-23T07:47:11;93930.88;;;9.39;59.86
1472;BME280;963;42.644;23.336;2024-02-23T07:49:37;93923.25;;;9.57;59.88
1472;BME280;963;42.644;23.336;2024-02-23T07:52:02;93884.44;;;9.44;60.71
1472;BME280;963;42.644;23.336;2024-02-23T07:54:28;93898.25;;;9.67;60.57
1472;BME280;963;42.644;23.336;2024-02-23T07:56:53;93907.19;;;9.62;60.48
1472;BME280;963;42.644;23.336;2024-02-23T07:59:19;93906.94;;;9.71;60.25
1472;BME280;963;42.644;23.336;2024-02-23T08:01:44;93916.00;;;9.47;61.03
1472;BME280;963;42.644;23.336;2024-02-23T08:04:10;93912.94;;;9.71;60.53
1472;BME280;963;42.644;23.336;2024-02-23T08:06:35;93918.25;;;9.49;61.03
1472;BME280;963;42.644;23.336;2024-02-23T08:09:01;93897.59;;;9.74;60.76
1472;BME280;963;42.644;23.336;2024-02-23T08:11:27;93884.22;;;9.86;60.69
1472;BME280;963;42.644;23.336;2024-02-23T08:13:53;93893.66;;;9.90;60.77
1472;BME280;963;42.644;23.336;2024-02-23T08:16:18;93895.16;;;10.21;59.88
1472;BME280;963;42.644;23.336;2024-02-23T08:18:44;93900.91;;;10.34;59.32
1472;BME280;963;42.644;23.336;2024-02-23T08:21:12;93903.56;;;10.38;59.93
1472;BME280;963;42.644;23.336;2024-02-23T08:23:37;93899.03;;;10.34;60.24
1472;BME280;963;42.644;23.336;2024-02-23T08:26:03;93896.81;;;10.37;60.07
1472;BME280;963;42.644;23.336;2024-02-23T08:28:28;93880.22;;;10.70;59.18
1472;BME280;963;42.644;23.336;2024-02-23T08:30:54;93877.75;;;10.87;58.84
1472;BME280;963;42.644;23.336;2024-02-23T08:33:19;93885.72;;;10.98;58.58
1472;BME280;963;42.644;23.336;2024-02-23T08:35:45;93893.59;;;10.94;58.89
1472;BME280;963;42.644;23.336;2024-02-23T08:38:11;93892.81;;;10.90;58.74
1472;BME280;963;42.644;23.336;2024-02-23T08:40:55;93891.72;;;10.95;58.88
1472;BME280;963;42.644;23.336;2024-02-23T08:43:20;93880.47;;;11.02;58.80
1472;BME280;963;42.644;23.336;2024-02-23T08:45:45;93877.13;;;11.05;58.41
1472;BME280;963;42.644;23.336;2024-02-23T08:48:11;93890.84;;;11.32;57.99
1472;BME280;963;42.644;23.336;2024-02-23T08:50:40;93881.59;;;11.01;58.47
1472;BME280;963;42.644;23.336;2024-02-23T08:53:05;93903.53;;;11.15;58.15
1472;BME280;963;42.644;23.336;2024-02-23T08:55:31;93890.44;;;11.26;58.11
1472;BME280;963;42.644;23.336;2024-02-23T08:57:58;93887.75;;;11.19;58.30
1472;BME280;963;42.644;23.336;2024-02-23T09:00:23;93891.63;;;11.36;57.85
1472;BME280;963;42.644;23.336;2024-02-23T09:02:49;93898.91;;;11.56;57.44
1472;BME280;963;42.644;23.336;2024-02-23T09:05:15;93911.00;;;11.65;57.77
1472;BME280;963;42.644;23.336;2024-02-23T09:07:41;93897.91;;;11.79;56.94
1472;BME280;963;42.644;23.336;2024-02-23T09:10:06;93876.84;;;11.86;55.93
1472;BME280;963;42.644;23.336;2024-02-23T09:12:32;93868.28;;;12.10;55.05
1472;BME280;963;42.644;23.336;2024-02-23T09:14:57;93867.19;;;12.18;54.28
1472;BME280;963;42.644;23.336;2024-02-23T09:17:23;93872.88;;;12.28;53.57
1472;BME280;963;42.644;23.336;2024-02-23T09:19:48;93878.56;;;12.40;53.52
1472;BME280;963;42.644;23.336;2024-02-23T09:22:14;93891.41;;;12.70;52.61
1472;BME280;963;42.644;23.336;2024-02-23T09:24:41;93895.94;;;12.88;51.98
1472;BME280;963;42.644;23.336;2024-02-23T09:27:06;93870.31;;;12.88;51.88
1472;BME280;963;42.644;23.336;2024-02-23T09:29:32;93859.00;;;13.12;51.47
1472;BME280;963;42.644;23.336;2024-02-23T09:31:58;93862.00;;;13.25;50.38
1472;BME280;963;42.644;23.336;2024-02-23T09:34:24;93867.25;;;13.50;50.61
1472;BME280;963;42.644;23.336;2024-02-23T09:36:49;93878.94;;;13.60;50.10
1472;BME280;963;42.644;23.336;2024-02-23T09:39:15;93866.41;;;13.85;48.34
1472;BME280;963;42.644;23.336;2024-02-23T09:41:42;93865.94;;;14.04;48.47
1472;BME280;963;42.644;23.336;2024-02-23T09:44:08;93877.59;;;14.21;47.61
1472;BME280;963;42.644;23.336;2024-02-23T09:46:36;93861.00;;;14.14;47.46
1472;BME280;963;42.644;23.336;2024-02-23T09:49:02;93858.31;;;14.24;47.07
1472;BME280;963;42.644;23.336;2024-02-23T09:51:33;93859.72;;;14.47;46.98
1472;BME280;963;42.644;23.336;2024-02-23T09:53:59;93855.97;;;14.37;46.75
1472;BME280;963;42.644;23.336;2024-02-23T09:56:27;93857.28;;;14.70;46.43
1472;BME280;963;42.644;23.336;2024-02-23T09:58:55;93857.53;;;14.90;45.06
1472;BME280;963;42.644;23.336;2024-02-23T10:01:27;93851.50;;;14.86;45.12
1472;BME280;963;42.644;23.336;2024-02-23T10:03:56;93851.50;;;14.89;45.11
1472;BME280;963;42.644;23.336;2024-02-23T10:06:23;93840.72;;;15.11;44.68
1472;BME280;963;42.644;23.336;2024-02-23T10:08:48;93838.31;;;15.27;44.13
1472;BME280;963;42.644;23.336;2024-02-23T10:11:18;93843.00;;;15.50;43.38
1472;BME280;963;42.644;23.336;2024-02-23T10:13:43;93831.44;;;15.71;43.26
1472;BME280;963;42.644;23.336;2024-02-23T10:16:08;93829.00;;;15.83;42.13
1472;BME280;963;42.644;23.336;2024-02-23T10:18:34;93830.91;;;15.83;42.74
1472;BME280;963;42.644;23.336;2024-02-23T10:20:59;93837.84;;;16.07;42.28
1472;BME280;963;42.644;23.336;2024-02-23T10:23:24;93862.31;;;16.18;41.83
1472;BME280;963;42.644;23.336;2024-02-23T10:25:50;93843.09;;;16.11;41.33
1472;BME280;963;42.644;23.336;2024-02-23T10:28:16;93835.03;;;16.18;40.66
1472;BME280;963;42.644;23.336;2024-02-23T10:30:42;93825.81;;;16.26;41.09
1472;BME280;963;42.644;23.336;2024-02-23T10:33:07;93830.25;;;16.36;40.46
1472;BME280;963;42.644;23.336;2024-02-23T10:35:38;93834.38;;;16.41;40.23
1472;BME280;963;42.644;23.336;2024-02-23T10:38:08;93833.50;;;15.52;41.23
1472;BME280;963;42.644;23.336;2024-02-23T10:40:36;93814.53;;;15.16;42.17
1472;BME280;963;42.644;23.336;2024-02-23T10:43:10;93824.59;;;15.36;42.36
1472;BME280;963;42.644;23.336;2024-02-23T10:45:37;93814.53;;;15.54;41.70
1472;BME280;963;42.644;23.336;2024-02-23T10:48:06;93806.13;;;15.66;42.07
1472;BME280;963;42.644;23.336;2024-02-23T10:50:33;93812.63;;;15.92;41.47
1472;BME280;963;42.644;23.336;2024-02-23T10:53:00;93802.19;;;15.78;41.86
1472;BME280;963;42.644;23.336;2024-02-23T10:55:26;93795.56;;;15.93;41.09
1472;BME280;963;42.644;23.336;2024-02-23T10:57:54;93796.88;;;16.08;41.05
1472;BME280;963;42.644;23.336;2024-02-23T11:00:21;93793.56;;;16.01;40.42
1472;BME280;963;42.644;23.336;2024-02-23T11:02:51;93783.34;;;16.26;40.41
1472;BME280;963;42.644;23.336;2024-02-23T11:05:18;93800.69;;;16.34;39.61
1472;BME280;963;42.644;23.336;2024-02-23T11:07:46;93802.19;;;16.35;39.69
1472;BME280;963;42.644;23.336;2024-02-23T11:10:14;93776.13;;;16.53;39.56
1472;BME280;963;42.644;23.336;2024-02-23T11:12:40;93773.44;;;16.57;39.26
1472;BME280;963;42.644;23.336;2024-02-23T11:15:06;93764.97;;;16.66;39.13
1472;BME280;963;42.644;23.336;2024-02-23T11:17:32;93769.13;;;16.67;39.35
1472;BME280;963;42.644;23.336;2024-02-23T11:19:58;93757.69;;;16.70;39.57
1472;BME280;963;42.644;23.336;2024-02-23T11:22:27;93763.09;;;16.63;39.15
1472;BME280;963;42.644;23.336;2024-02-23T11:25:06;93767.41;;;16.80;38.11
1472;BME280;963;42.644;23.336;2024-02-23T11:27:34;93762.78;;;16.84;38.03
1472;BME280;963;42.644;23.336;2024-02-23T11:30:05;93741.53;;;16.84;38.20
1472;BME280;963;42.644;23.336;2024-02-23T11:32:47;93747.78;;;16.74;38.40
1472;BME280;963;42.644;23.336;2024-02-23T11:35:16;93763.00;;;16.70;38.21
1472;BME280;963;42.644;23.336;2024-02-23T11:40:14;93744.56;;;16.59;38.57
1472;BME280;963;42.644;23.336;2024-02-23T11:42:42;93759.19;;;16.71;39.19
1472;BME280;963;42.644;23.336;2024-02-23T11:45:10;93766.72;;;16.76;38.37
1472;BME280;963;42.644;23.336;2024-02-23T11:47:37;93741.34;;;16.71;38.25
1472;BME280;963;42.644;23.336;2024-02-23T11:50:05;93731.94;;;16.43;38.41
1472;BME280;963;42.644;23.336;2024-02-23T11:52:32;93733.84;;;16.43;38.50
1472;BME280;963;42.644;23.336;2024-02-23T11:54:57;93727.16;;;16.31;37.95
1472;BME280;963;42.644;23.336;2024-02-23T11:57:22;93731.50;;;16.21;38.47
1472;BME280;963;42.644;23.336;2024-02-23T11:59:50;93727.84;;;16.12;38.51
1472;BME280;963;42.644;23.336;2024-02-23T12:02:17;93737.06;;;16.04;38.83
1472;BME280;963;42.644;23.336;2024-02-23T12:04:43;93736.19;;;16.37;38.34
1472;BME280;963;42.644;23.336;2024-02-23T12:07:08;93738.84;;;16.61;38.23
1472;BME280;963;42.644;23.336;2024-02-23T12:09:34;93724.66;;;16.71;38.14
1472;BME280;963;42.644;23.336;2024-02-23T12:11:59;93716.81;;;16.87;37.38
1472;BME280;963;42.644;23.336;2024-02-23T12:14:25;93703.72;;;16.76;37.27
1472;BME280;963;42.644;23.336;2024-02-23T12:16:51;93717.97;;;16.39;37.82
1472;BME280;963;42.644;23.336;2024-02-23T12:19:17;93710.59;;;16.74;37.72
1472;BME280;963;42.644;23.336;2024-02-23T12:21:45;93703.53;;;16.87;37.51
1472;BME280;963;42.644;23.336;2024-02-23T12:24:12;93717.22;;;16.85;36.97
1472;BME280;963;42.644;23.336;2024-02-23T12:26:37;93703.47;;;16.67;36.91
1472;BME280;963;42.644;23.336;2024-02-23T12:29:03;93706.03;;;16.74;36.24
1472;BME280;963;42.644;23.336;2024-02-23T12:31:30;93699.72;;;16.41;37.00
1472;BME280;963;42.644;23.336;2024-02-23T12:33:57;93685.13;;;16.53;36.73
1472;BME280;963;42.644;23.336;2024-02-23T12:36:23;93704.66;;;16.16;36.54
1472;BME280;963;42.644;23.336;2024-02-23T12:38:48;93681.50;;;16.43;36.80
1472;BME280;963;42.644;23.336;2024-02-23T12:41:14;93689.47;;;16.67;36.72
1472;BME280;963;42.644;23.336;2024-02-23T12:43:40;93680.63;;;16.73;36.45
1472;BME280;963;42.644;23.336;2024-02-23T12:46:05;93691.63;;;16.95;36.16
1472;BME280;963;42.644;23.336;2024-02-23T12:48:32;93692.31;;;16.99;36.00
1472;BME280;963;42.644;23.336;2024-02-23T12:50:57;93676.22;;;17.06;36.11
1472;BME280;963;42.644;23.336;2024-02-23T12:53:35;93670.84;;;17.30;35.58
1472;BME280;963;42.644;23.336;2024-02-23T12:56:03;93663.88;;;17.36;35.89
1472;BME280;963;42.644;23.336;2024-02-23T12:58:29;93669.88;;;17.40;36.17
1472;BME280;963;42.644;23.336;2024-02-23T13:00:55;93672.03;;;17.45;36.11
1472;BME280;963;42.644;23.336;2024-02-23T13:03:21;93675.34;;;16.93;36.01
1472;BME280;963;42.644;23.336;2024-02-23T13:05:46;93651.22;;;16.84;36.33
1472;BME280;963;42.644;23.336;2024-02-23T13:08:12;93661.44;;;17.05;36.75
1472;BME280;963;42.644;23.336;2024-02-23T13:10:37;93659.31;;;16.97;36.22
1472;BME280;963;42.644;23.336;2024-02-23T13:13:03;93658.72;;;16.89;36.66
1472;BME280;963;42.644;23.336;2024-02-23T13:15:28;93671.66;;;16.87;36.51
1472;BME280;963;42.644;23.336;2024-02-23T13:17:53;93664.63;;;16.97;36.22
1472;BME280;963;42.644;23.336;2024-02-23T13:20:19;93671.94;;;17.12;36.58
1472;BME280;963;42.644;23.336;2024-02-23T13:22:44;93665.88;;;16.92;36.43
1472;BME280;963;42.644;23.336;2024-02-23T13:25:10;93664.78;;;17.09;36.23